sensor_id;sensor_type;location;lat;lon;timestamp;temperature;humidity
4564;DHT22;2294;51.818;8.484;2023-07-24T00:02:05;22.50;99.90
4564;DHT22;2294;51.818;8.484;2023-07-24T00:04:34;22.50;99.90
4564;DHT22;2294;51.818;8.484;2023-07-24T00:07:01;22.40;99.90
4564;DHT22;2294;51.818;8.484;2023-07-24T00:09:28;22.40;99.90
4564;DHT22;2294;51.818;8.484;2023-07-24T00:11:55;22.40;99.90
4564;DHT22;2294;51.818;8.484;2023-07-24T00:14:22;22.40;99.90
4564;DHT22;2294;51.818;8.484;2023-07-24T00:16:49;22.50;99.90
4564;DHT22;2294;51.818;8.484;2023-07-24T00:19:16;22.60;99.90
4564;DHT22;2294;51.818;8.484;2023-07-24T00:21:45;22.60;99.90
4564;DHT22;2294;51.818;8.484;2023-07-24T00:24:11;22.50;99.90
4564;DHT22;2294;51.818;8.484;2023-07-24T00:26:38;22.50;99.90
4564;DHT22;2294;51.818;8.484;2023-07-24T00:29:05;22.50;99.90
4564;DHT22;2294;51.818;8.484;2023-07-24T00:31:32;22.40;99.90
4564;DHT22;2294;51.818;8.484;2023-07-24T00:33:59;22.40;99.90
4564;DHT22;2294;51.818;8.484;2023-07-24T00:36:26;22.30;99.90
4564;DHT22;2294;51.818;8.484;2023-07-24T00:38:54;22.30;99.90
4564;DHT22;2294;51.818;8.484;2023-07-24T00:41:21;22.40;99.90
4564;DHT22;2294;51.818;8.484;2023-07-24T00:43:48;22.40;99.90
4564;DHT22;2294;51.818;8.484;2023-07-24T00:46:15;22.40;99.90
4564;DHT22;2294;51.818;8.484;2023-07-24T00:48:42;22.60;99.90
4564;DHT22;2294;51.818;8.484;2023-07-24T00:51:10;22.60;99.90
4564;DHT22;2294;51.818;8.484;2023-07-24T00:53:37;22.60;99.90
4564;DHT22;2294;51.818;8.484;2023-07-24T00:56:05;22.60;99.90
4564;DHT22;2294;51.818;8.484;2023-07-24T00:58:33;22.70;99.90
4564;DHT22;2294;51.818;8.484;2023-07-24T01:01:02;22.70;99.90
4564;DHT22;2294;51.818;8.484;2023-07-24T01:03:33;22.70;99.90
4564;DHT22;2294;51.818;8.484;2023-07-24T01:06:01;22.60;99.90
4564;DHT22;2294;51.818;8.484;2023-07-24T01:08:28;22.50;99.90
4564;DHT22;2294;51.818;8.484;2023-07-24T01:10:57;22.50;99.90
4564;DHT22;2294;51.818;8.484;2023-07-24T01:13:28;22.40;99.90
4564;DHT22;2294;51.818;8.484;2023-07-24T01:16:00;22.30;99.90
4564;DHT22;2294;51.818;8.484;2023-07-24T01:18:30;22.40;99.90
4564;DHT22;2294;51.818;8.484;2023-07-24T01:20:57;22.30;99.90
4564;DHT22;2294;51.818;8.484;2023-07-24T01:23:51;22.20;99.90
4564;DHT22;2294;51.818;8.484;2023-07-24T01:26:23;22.40;99.90
4564;DHT22;2294;51.818;8.484;2023-07-24T01:28:50;22.40;99.90
4564;DHT22;2294;51.818;8.484;2023-07-24T01:31:17;22.30;99.90
4564;DHT22;2294;51.818;8.484;2023-07-24T01:33:44;22.40;99.90
4564;DHT22;2294;51.818;8.484;2023-07-24T01:36:12;22.30;99.90
4564;DHT22;2294;51.818;8.484;2023-07-24T01:38:40;22.40;99.90
4564;DHT22;2294;51.818;8.484;2023-07-24T01:41:07;22.40;99.90
4564;DHT22;2294;51.818;8.484;2023-07-24T01:43:36;22.30;99.90
4564;DHT22;2294;51.818;8.484;2023-07-24T01:46:03;22.20;99.90
4564;DHT22;2294;51.818;8.484;2023-07-24T01:48:29;22.20;99.90
4564;DHT22;2294;51.818;8.484;2023-07-24T01:50:56;22.10;99.90
4564;DHT22;2294;51.818;8.484;2023-07-24T01:53:23;22.10;99.90
4564;DHT22;2294;51.818;8.484;2023-07-24T01:55:50;22.10;99.90
4564;DHT22;2294;51.818;8.484;2023-07-24T01:58:17;21.90;99.90
4564;DHT22;2294;51.818;8.484;2023-07-24T02:00:45;22.00;99.90
4564;DHT22;2294;51.818;8.484;2023-07-24T02:03:12;21.90;99.90
4564;DHT22;2294;51.818;8.484;2023-07-24T02:05:39;21.90;99.90
4564;DHT22;2294;51.818;8.484;2023-07-24T02:08:06;21.90;99.90
4564;DHT22;2294;51.818;8.484;2023-07-24T02:10:36;21.90;99.90
4564;DHT22;2294;51.818;8.484;2023-07-24T02:13:03;22.00;99.90
4564;DHT22;2294;51.818;8.484;2023-07-24T02:15:32;22.10;99.90
4564;DHT22;2294;51.818;8.484;2023-07-24T02:18:00;22.20;99.90
4564;DHT22;2294;51.818;8.484;2023-07-24T02:20:27;22.40;99.90
4564;DHT22;2294;51.818;8.484;2023-07-24T02:22:54;22.40;99.90
4564;DHT22;2294;51.818;8.484;2023-07-24T02:25:21;22.60;99.90
4564;DHT22;2294;51.818;8.484;2023-07-24T02:27:47;22.70;99.90
4564;DHT22;2294;51.818;8.484;2023-07-24T02:30:14;22.80;99.90
4564;DHT22;2294;51.818;8.484;2023-07-24T02:32:41;22.80;99.90
4564;DHT22;2294;51.818;8.484;2023-07-24T02:35:09;22.80;99.90
4564;DHT22;2294;51.818;8.484;2023-07-24T02:37:36;22.80;99.90
4564;DHT22;2294;51.818;8.484;2023-07-24T02:40:04;22.80;99.90
4564;DHT22;2294;51.818;8.484;2023-07-24T02:42:31;23.00;99.90
4564;DHT22;2294;51.818;8.484;2023-07-24T02:44:58;22.80;99.90
4564;DHT22;2294;51.818;8.484;2023-07-24T02:47:25;22.80;99.90
4564;DHT22;2294;51.818;8.484;2023-07-24T02:49:52;22.80;99.90
4564;DHT22;2294;51.818;8.484;2023-07-24T02:52:20;22.80;99.90
4564;DHT22;2294;51.818;8.484;2023-07-24T02:54:47;22.90;99.90
4564;DHT22;2294;51.818;8.484;2023-07-24T02:57:14;23.00;99.90
4564;DHT22;2294;51.818;8.484;2023-07-24T02:59:41;23.00;99.90
4564;DHT22;2294;51.818;8.484;2023-07-24T03:02:07;23.00;99.90
4564;DHT22;2294;51.818;8.484;2023-07-24T03:04:34;23.10;99.90
4564;DHT22;2294;51.818;8.484;2023-07-24T03:07:01;23.10;99.90
4564;DHT22;2294;51.818;8.484;2023-07-24T03:09:29;23.20;99.90
4564;DHT22;2294;51.818;8.484;2023-07-24T03:11:56;23.20;99.90
4564;DHT22;2294;51.818;8.484;2023-07-24T03:14:23;23.10;99.90
4564;DHT22;2294;51.818;8.484;2023-07-24T03:16:50;23.00;99.90
4564;DHT22;2294;51.818;8.484;2023-07-24T03:19:17;22.90;99.90
4564;DHT22;2294;51.818;8.484;2023-07-24T03:21:45;22.80;99.90
4564;DHT22;2294;51.818;8.484;2023-07-24T03:24:12;22.80;99.90
4564;DHT22;2294;51.818;8.484;2023-07-24T03:26:40;22.70;99.90
4564;DHT22;2294;51.818;8.484;2023-07-24T03:29:07;22.60;99.90
4564;DHT22;2294;51.818;8.484;2023-07-24T03:31:34;22.60;99.90
4564;DHT22;2294;51.818;8.484;2023-07-24T03:34:01;22.60;99.90
4564;DHT22;2294;51.818;8.484;2023-07-24T03:36:28;22.40;99.90
4564;DHT22;2294;51.818;8.484;2023-07-24T03:38:55;22.40;99.90
4564;DHT22;2294;51.818;8.484;2023-07-24T03:41:21;22.50;99.90
4564;DHT22;2294;51.818;8.484;2023-07-24T03:43:50;22.60;99.90
4564;DHT22;2294;51.818;8.484;2023-07-24T03:46:17;22.60;99.90
4564;DHT22;2294;51.818;8.484;2023-07-24T03:48:43;22.60;99.90
4564;DHT22;2294;51.818;8.484;2023-07-24T03:51:10;22.70;99.90
4564;DHT22;2294;51.818;8.484;2023-07-24T03:53:37;22.60;99.90
4564;DHT22;2294;51.818;8.484;2023-07-24T03:56:04;22.60;99.90
4564;DHT22;2294;51.818;8.484;2023-07-24T03:58:31;22.60;99.90
4564;DHT22;2294;51.818;8.484;2023-07-24T04:00:59;22.60;99.90
4564;DHT22;2294;51.818;8.484;2023-07-24T04:03:26;22.70;99.90
4564;DHT22;2294;51.818;8.484;2023-07-24T04:05:53;22.80;99.90
4564;DHT22;2294;51.818;8.484;2023-07-24T04:08:20;22.80;99.90
4564;DHT22;2294;51.818;8.484;2023-07-24T04:10:47;22.90;99.90
4564;DHT22;2294;51.818;8.484;2023-07-24T04:13:14;22.90;99.90
4564;DHT22;2294;51.818;8.484;2023-07-24T04:15:40;21.80;99.90
4564;DHT22;2294;51.818;8.484;2023-07-24T04:18:09;23.10;99.90
4564;DHT22;2294;51.818;8.484;2023-07-24T04:20:36;22.40;99.90
4564;DHT22;2294;51.818;8.484;2023-07-24T04:23:03;23.20;99.90
4564;DHT22;2294;51.818;8.484;2023-07-24T04:25:30;23.30;99.90
4564;DHT22;2294;51.818;8.484;2023-07-24T04:27:56;23.30;99.90
4564;DHT22;2294;51.818;8.484;2023-07-24T04:30:23;23.30;99.90
4564;DHT22;2294;51.818;8.484;2023-07-24T04:32:50;23.20;99.90
4564;DHT22;2294;51.818;8.484;2023-07-24T04:35:18;23.10;99.90
4564;DHT22;2294;51.818;8.484;2023-07-24T04:37:45;23.10;99.90
4564;DHT22;2294;51.818;8.484;2023-07-24T04:40:12;23.10;99.90
4564;DHT22;2294;51.818;8.484;2023-07-24T04:42:39;23.00;99.90
4564;DHT22;2294;51.818;8.484;2023-07-24T04:45:07;23.00;99.90
4564;DHT22;2294;51.818;8.484;2023-07-24T04:47:34;23.00;99.90
4564;DHT22;2294;51.818;8.484;2023-07-24T04:50:02;23.00;99.90
4564;DHT22;2294;51.818;8.484;2023-07-24T04:52:30;22.90;99.90
4564;DHT22;2294;51.818;8.484;2023-07-24T04:54:57;23.00;99.90
4564;DHT22;2294;51.818;8.484;2023-07-24T04:57:24;23.00;99.90
4564;DHT22;2294;51.818;8.484;2023-07-24T04:59:51;23.00;99.90
4564;DHT22;2294;51.818;8.484;2023-07-24T05:02:18;22.90;99.90
4564;DHT22;2294;51.818;8.484;2023-07-24T05:04:45;23.00;99.90
4564;DHT22;2294;51.818;8.484;2023-07-24T05:07:12;23.00;99.90
4564;DHT22;2294;51.818;8.484;2023-07-24T05:09:40;22.90;99.90
4564;DHT22;2294;51.818;8.484;2023-07-24T05:12:07;23.00;99.90
4564;DHT22;2294;51.818;8.484;2023-07-24T05:14:34;23.00;99.90
4564;DHT22;2294;51.818;8.484;2023-07-24T05:17:01;23.10;99.90
4564;DHT22;2294;51.818;8.484;2023-07-24T05:19:27;23.10;99.90
4564;DHT22;2294;51.818;8.484;2023-07-24T05:21:54;23.10;99.90
4564;DHT22;2294;51.818;8.484;2023-07-24T05:24:21;23.10;99.90
4564;DHT22;2294;51.818;8.484;2023-07-24T05:26:49;23.10;99.90
4564;DHT22;2294;51.818;8.484;2023-07-24T05:29:16;23.10;99.90
4564;DHT22;2294;51.818;8.484;2023-07-24T05:31:43;23.10;99.90
4564;DHT22;2294;51.818;8.484;2023-07-24T05:34:10;22.90;99.90
4564;DHT22;2294;51.818;8.484;2023-07-24T05:36:37;22.90;99.90
4564;DHT22;2294;51.818;8.484;2023-07-24T05:39:04;22.90;99.90
4564;DHT22;2294;51.818;8.484;2023-07-24T05:41:31;22.90;99.90
4564;DHT22;2294;51.818;8.484;2023-07-24T05:43:59;22.80;99.90
4564;DHT22;2294;51.818;8.484;2023-07-24T05:46:26;22.70;99.90
4564;DHT22;2294;51.818;8.484;2023-07-24T05:48:52;22.40;99.90
4564;DHT22;2294;51.818;8.484;2023-07-24T05:51:19;22.40;99.90
4564;DHT22;2294;51.818;8.484;2023-07-24T05:53:46;22.40;99.90
4564;DHT22;2294;51.818;8.484;2023-07-24T05:56:13;22.20;99.90
4564;DHT22;2294;51.818;8.484;2023-07-24T05:58:40;22.20;99.90
4564;DHT22;2294;51.818;8.484;2023-07-24T06:01:08;22.10;99.90
4564;DHT22;2294;51.818;8.484;2023-07-24T06:03:35;22.10;99.90
4564;DHT22;2294;51.818;8.484;2023-07-24T06:06:04;22.10;99.90
4564;DHT22;2294;51.818;8.484;2023-07-24T06:08:31;22.20;99.90
4564;DHT22;2294;51.818;8.484;2023-07-24T06:10:58;22.20;99.90
4564;DHT22;2294;51.818;8.484;2023-07-24T06:13:25;22.20;99.90
4564;DHT22;2294;51.818;8.484;2023-07-24T06:15:52;22.10;99.90
4564;DHT22;2294;51.818;8.484;2023-07-24T06:18:20;21.90;99.90
4564;DHT22;2294;51.818;8.484;2023-07-24T06:20:47;21.80;99.90
4564;DHT22;2294;51.818;8.484;2023-07-24T06:23:18;21.90;99.90
4564;DHT22;2294;51.818;8.484;2023-07-24T06:25:45;21.80;99.90
4564;DHT22;2294;51.818;8.484;2023-07-24T06:28:12;21.90;99.90
4564;DHT22;2294;51.818;8.484;2023-07-24T06:30:39;21.80;99.90
4564;DHT22;2294;51.818;8.484;2023-07-24T06:33:05;21.70;99.90
4564;DHT22;2294;51.818;8.484;2023-07-24T06:35:34;21.70;99.90
4564;DHT22;2294;51.818;8.484;2023-07-24T06:38:04;21.60;99.90
4564;DHT22;2294;51.818;8.484;2023-07-24T06:40:33;21.80;99.90
4564;DHT22;2294;51.818;8.484;2023-07-24T06:43:00;21.80;99.90
4564;DHT22;2294;51.818;8.484;2023-07-24T06:45:27;22.00;99.90
4564;DHT22;2294;51.818;8.484;2023-07-24T06:47:54;22.40;99.90
4564;DHT22;2294;51.818;8.484;2023-07-24T06:50:21;22.50;99.90
4564;DHT22;2294;51.818;8.484;2023-07-24T06:52:49;22.70;99.90
4564;DHT22;2294;51.818;8.484;2023-07-24T06:55:17;22.80;99.90
4564;DHT22;2294;51.818;8.484;2023-07-24T06:57:44;22.70;99.90
4564;DHT22;2294;51.818;8.484;2023-07-24T07:00:12;22.80;99.90
4564;DHT22;2294;51.818;8.484;2023-07-24T07:02:42;22.80;99.90
4564;DHT22;2294;51.818;8.484;2023-07-24T07:05:09;22.80;99.90
4564;DHT22;2294;51.818;8.484;2023-07-24T07:07:36;22.80;99.90
4564;DHT22;2294;51.818;8.484;2023-07-24T07:10:07;22.90;99.90
4564;DHT22;2294;51.818;8.484;2023-07-24T07:12:34;22.90;99.90
4564;DHT22;2294;51.818;8.484;2023-07-24T07:15:01;23.00;99.90
4564;DHT22;2294;51.818;8.484;2023-07-24T07:17:28;23.10;99.90
4564;DHT22;2294;51.818;8.484;2023-07-24T07:19:55;23.30;99.90
4564;DHT22;2294;51.818;8.484;2023-07-24T07:22:27;23.60;99.90
4564;DHT22;2294;51.818;8.484;2023-07-24T07:24:54;23.60;99.90
4564;DHT22;2294;51.818;8.484;2023-07-24T07:27:22;23.60;99.90
4564;DHT22;2294;51.818;8.484;2023-07-24T07:29:49;23.50;99.90
4564;DHT22;2294;51.818;8.484;2023-07-24T07:32:16;23.60;99.90
4564;DHT22;2294;51.818;8.484;2023-07-24T07:34:43;23.60;99.90
4564;DHT22;2294;51.818;8.484;2023-07-24T07:37:10;23.60;99.90
4564;DHT22;2294;51.818;8.484;2023-07-24T07:39:36;24.00;99.90
4564;DHT22;2294;51.818;8.484;2023-07-24T07:42:04;23.70;99.90
4564;DHT22;2294;51.818;8.484;2023-07-24T07:44:32;23.40;99.90
4564;DHT22;2294;51.818;8.484;2023-07-24T11:10:49;22.00;99.90
4564;DHT22;2294;51.818;8.484;2023-07-24T11:13:16;22.30;99.90
4564;DHT22;2294;51.818;8.484;2023-07-24T11:15:44;22.70;99.90
4564;DHT22;2294;51.818;8.484;2023-07-24T11:18:11;22.60;99.90
4564;DHT22;2294;51.818;8.484;2023-07-24T11:20:42;22.10;99.90
4564;DHT22;2294;51.818;8.484;2023-07-24T11:23:10;22.60;99.90
4564;DHT22;2294;51.818;8.484;2023-07-24T11:25:37;22.60;99.90
4564;DHT22;2294;51.818;8.484;2023-07-24T11:28:06;22.50;99.90
4564;DHT22;2294;51.818;8.484;2023-07-24T11:30:33;22.90;99.90
4564;DHT22;2294;51.818;8.484;2023-07-24T11:33:03;22.60;99.90
4564;DHT22;2294;51.818;8.484;2023-07-24T11:35:30;22.40;99.90
4564;DHT22;2294;51.818;8.484;2023-07-24T11:37:57;22.20;99.90
4564;DHT22;2294;51.818;8.484;2023-07-24T11:40:31;22.50;99.90
4564;DHT22;2294;51.818;8.484;2023-07-24T11:42:59;22.80;99.90
4564;DHT22;2294;51.818;8.484;2023-07-24T11:45:27;22.90;99.90
4564;DHT22;2294;51.818;8.484;2023-07-24T11:47:54;23.10;99.90
4564;DHT22;2294;51.818;8.484;2023-07-24T11:50:22;23.60;99.90
4564;DHT22;2294;51.818;8.484;2023-07-24T11:52:51;23.60;99.90
4564;DHT22;2294;51.818;8.484;2023-07-24T11:55:19;23.50;1.00
4564;DHT22;2294;51.818;8.484;2023-07-24T11:57:55;23.70;44.50
4564;DHT22;2294;51.818;8.484;2023-07-24T12:00:23;23.80;1.00
4564;DHT22;2294;51.818;8.484;2023-07-24T12:02:51;24.60;1.00
4564;DHT22;2294;51.818;8.484;2023-07-24T12:05:18;24.60;1.00
4564;DHT22;2294;51.818;8.484;2023-07-24T12:07:45;23.60;30.00
4564;DHT22;2294;51.818;8.484;2023-07-24T12:10:13;23.20;18.40
4564;DHT22;2294;51.818;8.484;2023-07-24T12:12:43;23.00;99.90
4564;DHT22;2294;51.818;8.484;2023-07-24T12:15:10;23.00;99.90
4564;DHT22;2294;51.818;8.484;2023-07-24T12:17:38;23.10;1.00
4564;DHT22;2294;51.818;8.484;2023-07-24T12:20:08;22.80;1.00
4564;DHT22;2294;51.818;8.484;2023-07-24T12:22:36;22.50;1.00
4564;DHT22;2294;51.818;8.484;2023-07-24T12:25:04;22.20;1.00
4564;DHT22;2294;51.818;8.484;2023-07-24T12:27:31;22.30;1.00
4564;DHT22;2294;51.818;8.484;2023-07-24T12:29:58;22.20;99.90
4564;DHT22;2294;51.818;8.484;2023-07-24T12:32:25;21.50;99.90
4564;DHT22;2294;51.818;8.484;2023-07-24T12:34:53;21.60;1.00
4564;DHT22;2294;51.818;8.484;2023-07-24T12:37:21;21.30;79.70
4564;DHT22;2294;51.818;8.484;2023-07-24T12:39:48;21.20;99.90
4564;DHT22;2294;51.818;8.484;2023-07-24T12:42:15;21.10;99.90
4564;DHT22;2294;51.818;8.484;2023-07-24T12:44:43;21.00;99.90
4564;DHT22;2294;51.818;8.484;2023-07-24T12:47:10;20.80;99.90
4564;DHT22;2294;51.818;8.484;2023-07-24T12:49:37;20.80;99.90
4564;DHT22;2294;51.818;8.484;2023-07-24T12:52:05;21.00;99.90
4564;DHT22;2294;51.818;8.484;2023-07-24T12:54:34;21.30;99.90
4564;DHT22;2294;51.818;8.484;2023-07-24T12:57:02;21.30;99.90
4564;DHT22;2294;51.818;8.484;2023-07-24T12:59:29;21.70;99.90
4564;DHT22;2294;51.818;8.484;2023-07-24T13:01:56;21.20;99.90
4564;DHT22;2294;51.818;8.484;2023-07-24T13:04:23;20.90;99.90
4564;DHT22;2294;51.818;8.484;2023-07-24T13:06:50;21.00;99.90
4564;DHT22;2294;51.818;8.484;2023-07-24T13:09:18;21.10;99.90
4564;DHT22;2294;51.818;8.484;2023-07-24T13:11:46;21.00;99.90
4564;DHT22;2294;51.818;8.484;2023-07-24T13:14:14;21.10;99.90
4564;DHT22;2294;51.818;8.484;2023-07-24T13:16:41;21.00;99.90
4564;DHT22;2294;51.818;8.484;2023-07-24T13:19:08;21.10;99.90
4564;DHT22;2294;51.818;8.484;2023-07-24T13:21:35;21.20;99.90
4564;DHT22;2294;51.818;8.484;2023-07-24T13:24:02;21.30;99.90
4564;DHT22;2294;51.818;8.484;2023-07-24T13:26:29;21.40;99.90
4564;DHT22;2294;51.818;8.484;2023-07-24T13:28:58;21.60;99.90
4564;DHT22;2294;51.818;8.484;2023-07-24T13:31:24;21.70;99.90
4564;DHT22;2294;51.818;8.484;2023-07-24T13:33:53;21.90;99.90
4564;DHT22;2294;51.818;8.484;2023-07-24T13:36:20;21.90;99.90
4564;DHT22;2294;51.818;8.484;2023-07-24T13:38:47;21.20;99.90
4564;DHT22;2294;51.818;8.484;2023-07-24T13:41:15;21.20;99.90
4564;DHT22;2294;51.818;8.484;2023-07-24T13:43:42;20.70;99.90
4564;DHT22;2294;51.818;8.484;2023-07-24T13:46:11;20.50;99.90
4564;DHT22;2294;51.818;8.484;2023-07-24T13:48:37;20.50;99.90
4564;DHT22;2294;51.818;8.484;2023-07-24T13:51:04;20.20;99.90
4564;DHT22;2294;51.818;8.484;2023-07-24T13:53:31;20.30;99.90
4564;DHT22;2294;51.818;8.484;2023-07-24T13:55:58;20.10;99.90
4564;DHT22;2294;51.818;8.484;2023-07-24T13:58:25;20.90;99.90
4564;DHT22;2294;51.818;8.484;2023-07-24T14:00:52;21.20;99.90
4564;DHT22;2294;51.818;8.484;2023-07-24T14:03:20;21.60;99.90
4564;DHT22;2294;51.818;8.484;2023-07-24T14:05:49;21.90;99.90
4564;DHT22;2294;51.818;8.484;2023-07-24T14:08:16;21.80;99.90
4564;DHT22;2294;51.818;8.484;2023-07-24T14:10:43;21.80;99.90
4564;DHT22;2294;51.818;8.484;2023-07-24T14:13:10;21.70;99.90
4564;DHT22;2294;51.818;8.484;2023-07-24T14:15:37;22.10;99.90
4564;DHT22;2294;51.818;8.484;2023-07-24T14:18:04;22.90;99.90
4564;DHT22;2294;51.818;8.484;2023-07-24T14:20:32;22.90;99.90
4564;DHT22;2294;51.818;8.484;2023-07-24T14:22:59;23.70;99.90
4564;DHT22;2294;51.818;8.484;2023-07-24T14:25:26;23.50;99.90
4564;DHT22;2294;51.818;8.484;2023-07-24T14:27:53;24.60;99.90
4564;DHT22;2294;51.818;8.484;2023-07-24T14:30:20;25.70;99.90
4564;DHT22;2294;51.818;8.484;2023-07-24T14:32:46;23.80;99.90
4564;DHT22;2294;51.818;8.484;2023-07-24T14:35:15;25.40;99.90
4564;DHT22;2294;51.818;8.484;2023-07-24T14:37:43;27.20;99.90
4564;DHT22;2294;51.818;8.484;2023-07-24T14:40:11;27.00;99.90
4564;DHT22;2294;51.818;8.484;2023-07-24T14:42:38;27.30;1.00
4564;DHT22;2294;51.818;8.484;2023-07-24T14:45:07;27.90;99.90
4564;DHT22;2294;51.818;8.484;2023-07-24T14:47:34;28.60;1.00
4564;DHT22;2294;51.818;8.484;2023-07-24T14:50:01;29.10;1.00
4564;DHT22;2294;51.818;8.484;2023-07-24T14:52:28;28.90;1.00
4564;DHT22;2294;51.818;8.484;2023-07-24T14:54:56;28.60;99.90
4564;DHT22;2294;51.818;8.484;2023-07-24T14:57:24;26.60;1.00
4564;DHT22;2294;51.818;8.484;2023-07-24T14:59:51;23.80;1.00
4564;DHT22;2294;51.818;8.484;2023-07-24T15:02:18;23.10;1.00
4564;DHT22;2294;51.818;8.484;2023-07-24T15:04:44;22.80;94.20
4564;DHT22;2294;51.818;8.484;2023-07-24T15:07:11;23.10;1.00
4564;DHT22;2294;51.818;8.484;2023-07-24T15:09:38;23.80;99.90
4564;DHT22;2294;51.818;8.484;2023-07-24T15:12:07;27.90;1.00
4564;DHT22;2294;51.818;8.484;2023-07-24T15:14:34;29.30;43.10
4564;DHT22;2294;51.818;8.484;2023-07-24T15:17:01;29.60;1.00
4564;DHT22;2294;51.818;8.484;2023-07-24T15:19:28;28.30;99.90
4564;DHT22;2294;51.818;8.484;2023-07-24T15:21:55;28.60;99.90
4564;DHT22;2294;51.818;8.484;2023-07-24T15:24:22;28.40;1.00
4564;DHT22;2294;51.818;8.484;2023-07-24T15:26:48;27.00;99.90
4564;DHT22;2294;51.818;8.484;2023-07-24T15:29:17;26.70;99.90
4564;DHT22;2294;51.818;8.484;2023-07-24T15:31:44;28.80;99.90
4564;DHT22;2294;51.818;8.484;2023-07-24T15:34:11;28.00;1.00
4564;DHT22;2294;51.818;8.484;2023-07-24T15:36:37;29.10;1.00
4564;DHT22;2294;51.818;8.484;2023-07-24T15:39:04;26.10;1.00
4564;DHT22;2294;51.818;8.484;2023-07-24T15:41:31;26.30;1.00
4564;DHT22;2294;51.818;8.484;2023-07-24T15:43:58;24.90;1.00
4564;DHT22;2294;51.818;8.484;2023-07-24T15:46:27;24.60;1.00
4564;DHT22;2294;51.818;8.484;2023-07-24T15:48:57;25.50;99.90
4564;DHT22;2294;51.818;8.484;2023-07-24T15:51:24;25.70;1.00
4564;DHT22;2294;51.818;8.484;2023-07-24T15:53:51;24.70;99.90
4564;DHT22;2294;51.818;8.484;2023-07-24T15:56:20;25.40;1.00
4564;DHT22;2294;51.818;8.484;2023-07-24T15:58:49;26.80;1.00
4564;DHT22;2294;51.818;8.484;2023-07-24T16:01:17;25.20;99.90
4564;DHT22;2294;51.818;8.484;2023-07-24T16:03:45;24.10;1.00
4564;DHT22;2294;51.818;8.484;2023-07-24T16:06:12;23.10;99.90
4564;DHT22;2294;51.818;8.484;2023-07-24T16:08:40;22.70;99.90
4564;DHT22;2294;51.818;8.484;2023-07-24T16:11:08;22.40;1.00
4564;DHT22;2294;51.818;8.484;2023-07-24T16:13:36;22.00;99.90
4564;DHT22;2294;51.818;8.484;2023-07-24T16:16:03;22.00;99.90
4564;DHT22;2294;51.818;8.484;2023-07-24T16:18:30;21.70;99.90
4564;DHT22;2294;51.818;8.484;2023-07-24T16:20:59;21.60;99.90
4564;DHT22;2294;51.818;8.484;2023-07-24T16:23:25;21.70;99.90
4564;DHT22;2294;51.818;8.484;2023-07-24T16:25:52;21.60;99.90
4564;DHT22;2294;51.818;8.484;2023-07-24T16:28:19;21.50;99.90
4564;DHT22;2294;51.818;8.484;2023-07-24T16:30:46;21.40;99.90
4564;DHT22;2294;51.818;8.484;2023-07-24T16:33:13;21.40;99.90
4564;DHT22;2294;51.818;8.484;2023-07-24T16:35:40;21.40;99.90
4564;DHT22;2294;51.818;8.484;2023-07-24T16:38:08;21.10;99.90
4564;DHT22;2294;51.818;8.484;2023-07-24T16:40:39;21.50;99.90
4564;DHT22;2294;51.818;8.484;2023-07-24T16:43:06;21.90;99.90
4564;DHT22;2294;51.818;8.484;2023-07-24T16:45:33;22.20;99.90
4564;DHT22;2294;51.818;8.484;2023-07-24T16:48:00;22.30;99.90
4564;DHT22;2294;51.818;8.484;2023-07-24T16:50:27;22.10;99.90
4564;DHT22;2294;51.818;8.484;2023-07-24T16:52:55;21.80;99.90
4564;DHT22;2294;51.818;8.484;2023-07-24T16:55:23;21.20;99.90
4564;DHT22;2294;51.818;8.484;2023-07-24T16:57:50;21.00;99.90
4564;DHT22;2294;51.818;8.484;2023-07-24T17:00:18;21.10;99.90
4564;DHT22;2294;51.818;8.484;2023-07-24T17:02:44;21.00;99.90
4564;DHT22;2294;51.818;8.484;2023-07-24T17:05:11;21.10;99.90
4564;DHT22;2294;51.818;8.484;2023-07-24T17:07:38;21.10;99.90
4564;DHT22;2294;51.818;8.484;2023-07-24T17:10:06;20.90;99.90
4564;DHT22;2294;51.818;8.484;2023-07-24T17:12:35;21.00;99.90
4564;DHT22;2294;51.818;8.484;2023-07-24T17:15:02;21.20;99.90
4564;DHT22;2294;51.818;8.484;2023-07-24T17:17:29;21.00;99.90
4564;DHT22;2294;51.818;8.484;2023-07-24T17:19:56;21.20;99.90
4564;DHT22;2294;51.818;8.484;2023-07-24T17:22:23;21.50;99.90
4564;DHT22;2294;51.818;8.484;2023-07-24T17:24:50;21.30;99.90
4564;DHT22;2294;51.818;8.484;2023-07-24T17:27:17;21.30;99.90
4564;DHT22;2294;51.818;8.484;2023-07-24T17:29:45;21.20;99.90
4564;DHT22;2294;51.818;8.484;2023-07-24T17:32:12;21.20;99.90
4564;DHT22;2294;51.818;8.484;2023-07-24T17:34:39;21.50;99.90
4564;DHT22;2294;51.818;8.484;2023-07-24T17:37:06;21.30;99.90
4564;DHT22;2294;51.818;8.484;2023-07-24T17:39:33;21.50;99.90
4564;DHT22;2294;51.818;8.484;2023-07-24T17:42:00;21.60;99.90
4564;DHT22;2294;51.818;8.484;2023-07-24T17:44:27;21.50;99.90
4564;DHT22;2294;51.818;8.484;2023-07-24T17:46:55;21.10;99.90
4564;DHT22;2294;51.818;8.484;2023-07-24T17:49:22;20.80;99.90
4564;DHT22;2294;51.818;8.484;2023-07-24T17:51:49;20.80;99.90
4564;DHT22;2294;51.818;8.484;2023-07-24T17:54:16;20.70;99.90
4564;DHT22;2294;51.818;8.484;2023-07-24T17:56:43;20.70;99.90
4564;DHT22;2294;51.818;8.484;2023-07-24T17:59:10;20.50;99.90
4564;DHT22;2294;51.818;8.484;2023-07-24T18:01:37;20.40;99.90
4564;DHT22;2294;51.818;8.484;2023-07-24T18:04:05;20.40;99.90
4564;DHT22;2294;51.818;8.484;2023-07-24T18:06:33;20.50;99.90
4564;DHT22;2294;51.818;8.484;2023-07-24T18:09:00;20.20;99.90
4564;DHT22;2294;51.818;8.484;2023-07-24T18:11:27;20.20;99.90
4564;DHT22;2294;51.818;8.484;2023-07-24T18:13:54;20.50;99.90
4564;DHT22;2294;51.818;8.484;2023-07-24T18:16:21;20.50;99.90
4564;DHT22;2294;51.818;8.484;2023-07-24T18:18:48;20.30;99.90
4564;DHT22;2294;51.818;8.484;2023-07-24T18:21:16;20.60;99.90
4564;DHT22;2294;51.818;8.484;2023-07-24T18:23:43;20.80;99.90
4564;DHT22;2294;51.818;8.484;2023-07-24T18:26:09;20.60;99.90
4564;DHT22;2294;51.818;8.484;2023-07-24T18:28:36;20.60;99.90
4564;DHT22;2294;51.818;8.484;2023-07-24T18:31:03;20.60;99.90
4564;DHT22;2294;51.818;8.484;2023-07-24T18:33:30;20.60;99.90
4564;DHT22;2294;51.818;8.484;2023-07-24T18:36:00;20.70;99.90
4564;DHT22;2294;51.818;8.484;2023-07-24T18:38:28;20.80;99.90
4564;DHT22;2294;51.818;8.484;2023-07-24T18:40:55;20.70;99.90
4564;DHT22;2294;51.818;8.484;2023-07-24T18:43:22;20.60;99.90
4564;DHT22;2294;51.818;8.484;2023-07-24T18:45:49;20.50;99.90
4564;DHT22;2294;51.818;8.484;2023-07-24T18:48:16;20.50;99.90
4564;DHT22;2294;51.818;8.484;2023-07-24T18:50:43;20.00;99.90
4564;DHT22;2294;51.818;8.484;2023-07-24T18:53:10;20.20;99.90
4564;DHT22;2294;51.818;8.484;2023-07-24T18:55:38;20.00;99.90
4564;DHT22;2294;51.818;8.484;2023-07-24T18:58:06;19.70;99.90
4564;DHT22;2294;51.818;8.484;2023-07-24T19:00:33;19.80;99.90
4564;DHT22;2294;51.818;8.484;2023-07-24T19:03:01;19.80;99.90
4564;DHT22;2294;51.818;8.484;2023-07-24T19:05:27;19.70;99.90
4564;DHT22;2294;51.818;8.484;2023-07-24T19:07:54;19.60;99.90
4564;DHT22;2294;51.818;8.484;2023-07-24T19:10:22;19.80;99.90
4564;DHT22;2294;51.818;8.484;2023-07-24T19:12:50;19.70;99.90
4564;DHT22;2294;51.818;8.484;2023-07-24T19:15:17;19.60;99.90
4564;DHT22;2294;51.818;8.484;2023-07-24T19:17:44;19.80;99.90
4564;DHT22;2294;51.818;8.484;2023-07-24T19:20:12;19.80;99.90
4564;DHT22;2294;51.818;8.484;2023-07-24T19:22:39;19.60;99.90
4564;DHT22;2294;51.818;8.484;2023-07-24T19:25:06;19.60;99.90
4564;DHT22;2294;51.818;8.484;2023-07-24T19:27:34;19.80;99.90